Time;durP1;ratioP1;P1;durP2;ratioP2;P2;SDS_P1;SDS_P2;PMS_P1;PMS_P2;Temp;Humidity;BMP_temperature;BMP_pressure;BME280_temperature;BME280_humidity;BME280_pressure;Samples;Min_cycle;Max_cycle;Signal;HPM_P1;HPM_P2
2023/07/16 00:02:02;;;;;;;93.72;54.40;;;20.10;72.80;;;;;;4968574;28;98567;-45
2023/07/16 00:04:28;;;;;;;93.40;54.05;;;20.10;71.50;;;;;;4966579;28;95337;-48
2023/07/16 00:06:53;;;;;;;92.95;54.08;;;20.10;72.90;;;;;;4964904;28;96166;-44
2023/07/16 00:09:19;;;;;;;92.25;54.05;;;20.10;72.10;;;;;;4964672;28;98102;-46
2023/07/16 00:11:45;;;;;;;95.47;54.03;;;20.10;72.60;;;;;;4974192;28;94681;-47
2023/07/16 00:14:14;;;;;;;92.88;54.15;;;20.10;72.60;;;;;;4967488;28;95028;-46
2023/07/16 00:16:39;;;;;;;91.82;53.95;;;20.10;73.40;;;;;;4972565;28;94708;-47
2023/07/16 00:19:05;;;;;;;92.93;54.08;;;20.00;72.20;;;;;;4969634;28;95066;-47
2023/07/16 00:21:31;;;;;;;93.57;54.25;;;20.00;71.90;;;;;;4964110;28;96442;-48
2023/07/16 00:23:56;;;;;;;92.78;54.33;;;20.00;72.50;;;;;;4967439;28;97912;-46
2023/07/16 00:26:22;;;;;;;93.82;54.50;;;20.00;72.70;;;;;;4965483;28;95772;-47
2023/07/16 00:28:47;;;;;;;93.80;54.08;;;20.00;72.40;;;;;;4970019;28;95656;-46
2023/07/16 00:31:13;;;;;;;91.85;54.05;;;20.00;72.70;;;;;;4964722;28;97328;-45
2023/07/16 00:33:39;;;;;;;92.60;54.10;;;19.90;72.60;;;;;;4966230;28;96413;-46
2023/07/16 00:36:05;;;;;;;93.15;54.00;;;19.90;72.40;;;;;;4975325;28;96667;-43
2023/07/16 00:38:31;;;;;;;92.00;54.22;;;19.90;73.00;;;;;;4944111;28;94485;-44
2023/07/16 00:40:57;;;;;;;94.07;54.28;;;19.90;72.80;;;;;;4962933;28;96301;-44
2023/07/16 00:43:22;;;;;;;92.00;54.25;;;19.90;72.50;;;;;;4969086;28;96305;-47
2023/07/16 00:45:49;;;;;;;94.90;54.35;;;19.90;73.10;;;;;;4963153;28;96437;-47
2023/07/16 00:48:15;;;;;;;92.22;54.25;;;19.80;72.70;;;;;;4963117;28;96655;-44
2023/07/16 00:50:41;;;;;;;92.53;54.15;;;19.80;74.10;;;;;;4965607;28;97371;-46
2023/07/16 00:53:08;;;;;;;92.97;54.20;;;19.80;73.10;;;;;;4969098;28;95314;-48
2023/07/16 00:55:38;;;;;;;92.75;54.13;;;19.80;72.80;;;;;;4965458;28;97796;-47
2023/07/16 00:58:06;;;;;;;92.80;54.25;;;19.80;73.10;;;;;;4967075;28;94820;-48
2023/07/16 01:00:33;;;;;;;93.90;53.95;;;19.80;73.90;;;;;;4964818;28;95973;-47
2023/07/16 01:02:58;;;;;;;94.10;54.28;;;19.80;72.90;;;;;;4967986;28;94150;-44
2023/07/16 01:05:29;;;;;;;92.10;54.15;;;19.80;73.40;;;;;;4975122;28;94733;-46
2023/07/16 01:08:01;;;;;;;92.30;53.72;;;19.70;73.70;;;;;;4966637;28;96153;-44
2023/07/16 01:10:28;;;;;;;91.65;54.05;;;19.70;73.50;;;;;;4964480;28;96879;-48
2023/07/16 01:12:56;;;;;;;90.80;53.75;;;19.70;73.10;;;;;;4968727;28;96082;-47
2023/07/16 01:15:22;;;;;;;92.30;54.33;;;19.70;73.50;;;;;;4964663;28;97044;-49
2023/07/16 01:17:47;;;;;;;93.65;54.13;;;19.70;73.70;;;;;;4966004;28;100135;-45
2023/07/16 01:20:13;;;;;;;92.10;54.25;;;19.70;73.40;;;;;;4945507;28;95847;-44
2023/07/16 01:23:12;;;;;;;93.38;53.92;;;19.70;74.80;;;;;;4945921;28;98502;-45
2023/07/16 01:26:02;;;;;;;92.60;54.20;;;19.70;73.50;;;;;;4948267;28;98401;-44
2023/07/16 01:28:49;;;;;;;92.25;54.00;;;19.60;74.10;;;;;;4942440;28;94661;-47
2023/07/16 01:31:17;;;;;;;92.78;54.30;;;19.60;74.40;;;;;;4952763;28;96946;-45
2023/07/16 01:33:44;;;;;;;92.60;54.53;;;19.60;73.80;;;;;;4942197;28;99068;-45
2023/07/16 01:36:10;;;;;;;92.80;54.60;;;19.50;73.80;;;;;;4947089;28;96864;-47
2023/07/16 01:38:36;;;;;;;92.43;54.28;;;19.50;73.40;;;;;;4956355;28;96188;-43
2023/07/16 01:41:02;;;;;;;92.50;54.10;;;19.60;74.70;;;;;;4948027;28;96510;-42
2023/07/16 01:43:27;;;;;;;93.93;54.25;;;19.50;74.10;;;;;;4947977;28;96395;-42
2023/07/16 01:45:53;;;;;;;92.07;54.40;;;19.50;73.90;;;;;;4947053;28;97886;-41
2023/07/16 01:48:34;;;;;;;92.93;54.45;;;19.50;73.00;;;;;;4939061;28;94973;-43
2023/07/16 01:50:59;;;;;;;92.47;54.85;;;19.50;74.40;;;;;;4946080;28;95918;-44
2023/07/16 01:53:25;;;;;;;91.63;54.00;;;19.50;73.70;;;;;;4942654;28;95294;-45
2023/07/16 01:55:51;;;;;;;91.93;54.40;;;19.40;75.30;;;;;;4948371;28;95249;-41
2023/07/16 01:58:16;;;;;;;90.85;53.50;;;19.40;72.80;;;;;;4940657;28;94886;-43
2023/07/16 02:00:42;;;;;;;92.05;54.38;;;19.50;75.20;;;;;;4939637;28;100091;-41
2023/07/16 02:03:08;;;;;;;92.22;54.15;;;19.40;74.50;;;;;;4944981;28;95203;-42
2023/07/16 02:05:34;;;;;;;92.18;54.15;;;19.40;75.00;;;;;;4947024;28;95327;-41
2023/07/16 02:07:59;;;;;;;93.70;54.72;;;19.40;73.20;;;;;;4945993;28;96037;-42
2023/07/16 02:10:25;;;;;;;92.25;54.50;;;19.30;74.00;;;;;;4942579;28;96221;-41
2023/07/16 02:12:51;;;;;;;92.15;54.40;;;19.40;74.90;;;;;;4950284;28;98290;-41
2023/07/16 02:15:17;;;;;;;90.70;53.90;;;19.30;74.00;;;;;;4948582;28;95070;-41
2023/07/16 02:17:43;;;;;;;92.35;54.70;;;19.30;75.00;;;;;;4948228;28;94830;-41
2023/07/16 02:20:10;;;;;;;91.88;54.33;;;19.30;73.90;;;;;;4962871;28;96376;-42
2023/07/16 02:22:36;;;;;;;92.40;54.45;;;19.30;74.50;;;;;;4960911;28;95288;-43
2023/07/16 02:25:02;;;;;;;92.35;54.55;;;19.30;75.40;;;;;;4943090;28;96046;-41
2023/07/16 02:27:28;;;;;;;95.05;55.03;;;19.30;74.60;;;;;;4962263;28;95576;-45
2023/07/16 02:29:54;;;;;;;93.30;54.97;;;19.30;73.50;;;;;;4960703;28;99820;-44
2023/07/16 02:32:20;;;;;;;92.07;54.47;;;19.30;74.00;;;;;;4954368;28;96073;-48
2023/07/16 02:34:45;;;;;;;94.18;54.85;;;19.20;74.20;;;;;;4944406;28;96095;-46
2023/07/16 02:37:11;;;;;;;92.13;54.75;;;19.30;74.20;;;;;;4964792;28;94920;-43
2023/07/16 02:39:38;;;;;;;93.95;54.95;;;19.20;73.60;;;;;;4961996;28;96916;-47
2023/07/16 02:42:04;;;;;;;95.00;54.80;;;19.20;74.50;;;;;;4965292;28;94811;-44
2023/07/16 02:44:30;;;;;;;91.85;54.03;;;19.20;75.90;;;;;;4961923;28;99192;-47
2023/07/16 02:46:55;;;;;;;92.00;54.15;;;19.20;75.30;;;;;;4960735;28;99784;-48
2023/07/16 02:49:21;;;;;;;92.25;54.83;;;19.20;75.50;;;;;;4959516;28;97094;-44
2023/07/16 02:51:47;;;;;;;92.55;54.72;;;19.20;74.10;;;;;;4935270;28;98032;-46
2023/07/16 02:54:12;;;;;;;92.57;54.78;;;19.20;75.10;;;;;;4963733;28;95147;-47
2023/07/16 02:56:38;;;;;;;91.68;54.40;;;19.20;74.00;;;;;;4964988;28;97973;-52
2023/07/16 02:59:03;;;;;;;92.07;54.58;;;19.20;76.60;;;;;;4968814;28;95365;-48
2023/07/16 03:01:29;;;;;;;93.78;55.00;;;19.20;74.80;;;;;;4956873;28;97624;-45
2023/07/16 03:03:55;;;;;;;92.60;54.85;;;19.20;75.30;;;;;;4960048;28;94586;-43
2023/07/16 03:06:20;;;;;;;92.47;54.58;;;19.20;74.00;;;;;;4962721;28;94023;-46
2023/07/16 03:08:46;;;;;;;92.82;55.17;;;19.20;75.00;;;;;;4956576;28;99761;-49
2023/07/16 03:11:12;;;;;;;92.65;54.65;;;19.10;73.90;;;;;;4972877;28;95059;-46
2023/07/16 03:13:37;;;;;;;94.43;54.92;;;19.10;74.00;;;;;;4970551;28;96141;-48
2023/07/16 03:16:03;;;;;;;92.00;54.97;;;19.10;74.70;;;;;;4961436;28;96379;-47
2023/07/16 03:18:30;;;;;;;92.65;54.42;;;19.10;74.10;;;;;;4958529;28;97664;-46
2023/07/16 03:20:56;;;;;;;92.85;54.85;;;19.10;74.80;;;;;;4968311;28;95799;-47
2023/07/16 03:23:22;;;;;;;92.40;54.78;;;19.10;74.60;;;;;;4965303;28;96293;-49
2023/07/16 03:25:48;;;;;;;93.40;54.83;;;19.10;74.00;;;;;;4964487;28;95284;-49
2023/07/16 03:28:13;;;;;;;92.05;54.55;;;19.10;74.60;;;;;;4960548;28;98192;-45
2023/07/16 03:30:39;;;;;;;93.15;55.17;;;19.10;75.70;;;;;;4960480;28;97623;-48
2023/07/16 03:33:05;;;;;;;91.82;54.45;;;19.10;73.30;;;;;;4961441;28;95974;-49
2023/07/16 03:35:31;;;;;;;93.28;54.78;;;19.10;74.70;;;;;;4958104;28;95355;-45
2023/07/16 03:37:56;;;;;;;92.82;54.40;;;19.10;74.70;;;;;;4970541;28;96701;-47
2023/07/16 03:40:25;;;;;;;93.50;54.80;;;19.20;75.30;;;;;;4975934;28;96052;-44
2023/07/16 03:42:51;;;;;;;90.93;54.50;;;19.10;75.10;;;;;;4968552;28;94680;-43
2023/07/16 03:45:17;;;;;;;92.53;54.72;;;19.20;75.60;;;;;;4966108;28;95346;-46
2023/07/16 03:47:42;;;;;;;93.65;54.92;;;19.20;74.00;;;;;;4969101;28;96415;-43
2023/07/16 03:50:08;;;;;;;92.90;55.25;;;19.20;73.60;;;;;;4959793;28;95798;-46
2023/07/16 03:52:34;;;;;;;93.47;54.88;;;19.20;73.30;;;;;;4965968;28;97073;-45
2023/07/16 03:55:00;;;;;;;93.07;55.05;;;19.20;72.40;;;;;;4964827;28;96547;-45
2023/07/16 03:57:27;;;;;;;92.97;55.13;;;19.20;74.10;;;;;;4965412;28;96311;-47
2023/07/16 03:59:53;;;;;;;93.20;54.80;;;19.20;73.50;;;;;;4962366;28;96212;-46
2023/07/16 04:02:18;;;;;;;92.57;54.92;;;19.20;73.60;;;;;;4966652;28;97904;-47
2023/07/16 04:04:44;;;;;;;94.30;55.58;;;19.20;74.00;;;;;;4968495;28;96928;-45
2023/07/16 04:07:09;;;;;;;92.32;55.17;;;19.20;72.80;;;;;;4964207;28;101194;-46
2023/07/16 04:09:38;;;;;;;92.03;54.97;;;19.20;73.30;;;;;;4974322;28;95111;-48
2023/07/16 04:12:05;;;;;;;92.78;55.13;;;19.20;73.60;;;;;;4964924;28;96104;-47
2023/07/16 04:14:30;;;;;;;93.28;55.33;;;19.20;74.50;;;;;;4967530;28;95634;-45
2023/07/16 04:16:56;;;;;;;93.28;55.10;;;19.20;73.90;;;;;;4964655;28;95486;-47
2023/07/16 04:19:21;;;;;;;92.65;55.05;;;19.10;73.10;;;;;;4968811;28;98914;-49
2023/07/16 04:21:47;;;;;;;94.43;55.60;;;19.10;72.50;;;;;;4971308;28;98577;-43
2023/07/16 04:24:12;;;;;;;93.78;55.22;;;19.10;74.00;;;;;;4976603;28;94791;-48
2023/07/16 04:26:38;;;;;;;93.18;55.25;;;19.10;73.50;;;;;;4981055;28;98592;-46
2023/07/16 04:29:04;;;;;;;93.03;54.92;;;19.20;74.00;;;;;;4975001;28;96076;-45
2023/07/16 04:31:29;;;;;;;92.32;55.13;;;19.20;74.50;;;;;;4972554;28;98122;-45
2023/07/16 04:33:55;;;;;;;93.07;55.20;;;19.20;72.80;;;;;;4976362;28;94702;-43
2023/07/16 04:36:20;;;;;;;95.43;55.20;;;19.10;75.00;;;;;;4974146;28;97285;-44
2023/07/16 04:38:46;;;;;;;93.13;55.20;;;19.20;74.50;;;;;;4979008;28;94758;-47
2023/07/16 04:41:12;;;;;;;93.53;55.40;;;19.20;73.10;;;;;;4973044;28;98076;-44
2023/07/16 04:43:38;;;;;;;91.72;55.13;;;19.20;74.40;;;;;;4965428;28;94916;-45
2023/07/16 04:46:04;;;;;;;93.55;55.50;;;19.20;75.10;;;;;;4960113;28;103164;-46
2023/07/16 04:48:30;;;;;;;94.68;55.47;;;19.20;73.90;;;;;;4972848;28;94845;-46
2023/07/16 04:50:55;;;;;;;94.25;55.67;;;19.20;74.10;;;;;;4968208;28;99145;-42
2023/07/16 04:53:22;;;;;;;93.07;55.33;;;19.20;72.70;;;;;;4967702;28;94787;-46
2023/07/16 04:55:49;;;;;;;94.05;55.10;;;19.20;74.30;;;;;;4967544;28;95244;-45
2023/07/16 04:58:15;;;;;;;93.65;55.30;;;19.20;73.60;;;;;;4968906;28;95084;-44
2023/07/16 05:00:41;;;;;;;92.80;55.33;;;19.20;73.40;;;;;;4966127;28;95391;-44
2023/07/16 05:03:07;;;;;;;95.20;55.55;;;19.30;73.40;;;;;;4964911;28;98976;-47
2023/07/16 05:05:33;;;;;;;94.78;55.58;;;19.30;73.50;;;;;;4973653;28;96233;-47
2023/07/16 05:07:58;;;;;;;93.10;55.53;;;19.30;74.40;;;;;;4975148;28;98916;-46
2023/07/16 05:10:24;;;;;;;93.47;55.95;;;19.30;72.30;;;;;;4970485;28;98235;-47
2023/07/16 05:12:50;;;;;;;92.90;55.25;;;19.30;71.80;;;;;;4968962;28;95234;-46
2023/07/16 05:15:16;;;;;;;94.32;55.60;;;19.30;73.30;;;;;;4963693;28;97138;-46
2023/07/16 05:17:41;;;;;;;93.15;55.33;;;19.30;73.10;;;;;;4962589;28;96926;-44
2023/07/16 05:20:09;;;;;;;94.53;55.85;;;19.40;73.30;;;;;;4967083;28;96094;-45
2023/07/16 05:22:34;;;;;;;94.32;55.28;;;19.40;73.30;;;;;;4969698;28;99948;-43
2023/07/16 05:25:00;;;;;;;95.25;55.00;;;19.40;71.70;;;;;;4965731;28;96207;-44
2023/07/16 05:27:26;;;;;;;93.93;55.55;;;19.40;72.50;;;;;;4969857;28;95515;-44
2023/07/16 05:29:51;;;;;;;95.72;55.85;;;19.50;74.00;;;;;;4964902;28;95699;-46
2023/07/16 05:32:17;;;;;;;95.10;55.75;;;19.50;73.20;;;;;;4967900;28;97067;-44
2023/07/16 05:34:42;;;;;;;95.15;55.67;;;19.50;72.30;;;;;;4966409;28;96764;-45
2023/07/16 05:37:08;;;;;;;93.07;55.53;;;19.60;72.80;;;;;;4967862;28;95480;-46
2023/07/16 05:39:34;;;;;;;92.47;55.30;;;19.60;72.20;;;;;;4967075;28;96688;-47
2023/07/16 05:42:02;;;;;;;94.80;55.80;;;19.60;72.60;;;;;;4975853;28;96787;-44
2023/07/16 05:44:28;;;;;;;93.57;55.53;;;19.60;73.00;;;;;;4974602;28;96803;-46
2023/07/16 05:46:53;;;;;;;93.25;55.65;;;19.60;72.00;;;;;;4964319;28;94749;-47
2023/07/16 05:49:19;;;;;;;94.35;55.42;;;19.60;71.70;;;;;;4962894;28;94737;-50
2023/07/16 05:51:45;;;;;;;95.03;55.75;;;19.70;72.40;;;;;;4966420;28;95485;-46
2023/07/16 05:54:10;;;;;;;93.90;55.72;;;19.70;72.00;;;;;;4955503;28;99438;-48
2023/07/16 05:56:36;;;;;;;94.35;55.88;;;19.80;72.10;;;;;;4962161;28;94562;-46
2023/07/16 05:59:02;;;;;;;93.13;55.63;;;19.80;71.20;;;;;;4968773;28;95324;-46
2023/07/16 06:01:27;;;;;;;93.65;55.85;;;19.80;71.30;;;;;;4965390;28;95039;-46
2023/07/16 06:03:53;;;;;;;94.65;55.90;;;19.80;71.50;;;;;;4966959;28;96380;-44
2023/07/16 06:06:19;;;;;;;94.60;55.85;;;19.80;70.60;;;;;;4961844;28;96527;-49
2023/07/16 06:08:45;;;;;;;93.80;55.50;;;19.90;70.80;;;;;;4962794;28;96807;-44
2023/07/16 06:11:12;;;;;;;94.25;55.70;;;19.90;71.60;;;;;;4970739;28;99098;-45
2023/07/16 06:13:37;;;;;;;94.30;55.78;;;19.90;71.40;;;;;;4964107;28;100223;-45
2023/07/16 06:16:03;;;;;;;95.55;56.28;;;20.00;69.80;;;;;;4965909;28;97740;-48
2023/07/16 06:18:29;;;;;;;96.15;56.30;;;20.00;70.70;;;;;;4968250;28;94758;-47
2023/07/16 06:20:55;;;;;;;95.10;56.08;;;20.00;70.90;;;;;;4944195;28;93883;-43
2023/07/16 06:23:21;;;;;;;94.70;55.67;;;20.10;70.80;;;;;;4958904;28;95603;-46
2023/07/16 06:25:49;;;;;;;95.38;55.90;;;20.10;70.20;;;;;;4965788;28;95918;-45
2023/07/16 06:28:15;;;;;;;93.72;55.33;;;20.10;69.60;;;;;;4965932;28;96536;-48
2023/07/16 06:30:41;;;;;;;96.53;56.38;;;20.20;69.70;;;;;;4962743;28;94908;-45
2023/07/16 06:33:07;;;;;;;94.97;55.92;;;20.30;69.80;;;;;;4960888;28;95194;-43
2023/07/16 06:35:33;;;;;;;96.60;56.38;;;20.30;69.10;;;;;;4957946;28;94985;-45
2023/07/16 06:37:58;;;;;;;94.72;56.17;;;20.30;68.90;;;;;;4965348;28;95919;-45
2023/07/16 06:40:24;;;;;;;94.60;56.28;;;20.40;69.10;;;;;;4961739;28;97402;-45
2023/07/16 06:42:50;;;;;;;96.32;56.22;;;20.30;69.00;;;;;;4962167;28;95993;-46
2023/07/16 06:45:17;;;;;;;95.30;56.20;;;20.40;69.50;;;;;;4966075;28;97108;-44
2023/07/16 06:47:43;;;;;;;96.32;56.65;;;20.40;69.20;;;;;;4962130;28;95689;-43
2023/07/16 06:50:09;;;;;;;93.93;56.30;;;20.40;68.00;;;;;;4961749;28;95656;-47
2023/07/16 06:52:35;;;;;;;94.68;56.03;;;20.40;68.60;;;;;;4966633;28;98788;-44
2023/07/16 06:55:00;;;;;;;96.28;56.35;;;20.40;69.00;;;;;;4970137;28;94880;-46
2023/07/16 06:57:26;;;;;;;95.55;56.15;;;20.40;68.50;;;;;;4965829;28;96214;-47
2023/07/16 06:59:52;;;;;;;94.55;56.28;;;20.40;68.60;;;;;;4963132;28;96068;-45
2023/07/16 07:02:18;;;;;;;96.45;56.67;;;20.40;68.70;;;;;;4963306;28;100148;-45
2023/07/16 07:04:44;;;;;;;96.57;56.17;;;20.50;69.20;;;;;;4955925;28;94799;-43
2023/07/16 07:07:10;;;;;;;102.15;58.08;;;20.50;69.40;;;;;;4939273;28;99387;-48
2023/07/16 07:09:35;;;;;;;101.43;58.25;;;20.50;69.80;;;;;;4954541;28;95312;-42
2023/07/16 07:12:01;;;;;;;97.63;57.45;;;20.60;70.10;;;;;;4960389;28;97710;-41
2023/07/16 07:14:27;;;;;;;101.78;58.03;;;20.50;70.10;;;;;;4965146;28;95635;-41
2023/07/16 07:16:53;;;;;;;102.28;57.70;;;20.60;69.30;;;;;;4965859;28;96913;-42
2023/07/16 07:19:18;;;;;;;103.47;58.08;;;20.60;68.70;;;;;;4962977;28;94946;-43
2023/07/16 07:21:44;;;;;;;104.25;58.53;;;20.60;70.30;;;;;;4963742;28;97161;-42
2023/07/16 07:24:09;;;;;;;103.35;58.58;;;20.70;69.00;;;;;;4955605;28;96831;-42
2023/07/16 07:26:35;;;;;;;102.70;59.03;;;20.70;70.00;;;;;;4946111;28;95571;-41
2023/07/16 07:29:01;;;;;;;101.35;59.05;;;20.70;68.10;;;;;;4965145;28;95977;-44
2023/07/16 07:31:26;;;;;;;101.25;57.95;;;20.70;69.70;;;;;;4960499;28;95945;-46
2023/07/16 07:33:53;;;;;;;102.32;58.53;;;20.70;69.30;;;;;;4960278;28;97258;-44
2023/07/16 07:36:19;;;;;;;102.60;58.08;;;20.90;69.70;;;;;;4963943;28;95149;-42
2023/07/16 07:38:45;;;;;;;105.18;59.00;;;21.10;67.00;;;;;;4967695;28;96042;-42
2023/07/16 07:41:11;;;;;;;102.70;58.28;;;21.20;67.60;;;;;;4929413;28;99107;-44
2023/07/16 07:43:36;;;;;;;103.07;58.53;;;21.40;68.80;;;;;;4952133;28;94723;-43
2023/07/16 07:46:02;;;;;;;99.88;58.58;;;21.40;68.00;;;;;;4960140;28;94766;-46
2023/07/16 07:48:28;;;;;;;103.85;58.50;;;21.40;68.00;;;;;;4962622;28;95439;-45
2023/07/16 07:50:53;;;;;;;105.95;58.45;;;21.60;67.60;;;;;;4968412;28;94719;-45
2023/07/16 07:53:19;;;;;;;102.93;58.60;;;21.60;66.20;;;;;;4969364;28;95202;-43
2023/07/16 07:55:45;;;;;;;102.35;58.92;;;21.60;65.30;;;;;;4970287;28;95508;-44
2023/07/16 07:58:11;;;;;;;102.82;58.25;;;21.60;64.80;;;;;;4970530;28;95418;-44
2023/07/16 08:00:37;;;;;;;103.00;58.47;;;21.70;64.20;;;;;;4971577;28;96330;-44
2023/07/16 08:03:03;;;;;;;103.80;58.00;;;21.60;63.70;;;;;;4971861;28;97859;-45
2023/07/16 08:05:28;;;;;;;103.35;58.55;;;21.70;63.20;;;;;;4972265;28;95844;-44
2023/07/16 08:07:55;;;;;;;102.95;58.72;;;21.70;62.40;;;;;;4975610;28;94828;-45
2023/07/16 08:10:21;;;;;;;102.55;58.30;;;21.80;62.20;;;;;;4978669;28;96453;-42
2023/07/16 08:12:48;;;;;;;101.20;58.40;;;21.80;62.40;;;;;;4962647;28;99217;-43
2023/07/16 08:15:14;;;;;;;102.88;59.15;;;21.80;62.10;;;;;;4954655;28;96753;-44
2023/07/16 08:17:44;;;;;;;103.57;58.83;;;21.90;62.50;;;;;;4967473;28;95144;-46
2023/07/16 08:20:11;;;;;;;102.43;58.50;;;21.90;62.40;;;;;;4967538;28;96533;-40
2023/07/16 08:22:38;;;;;;;107.00;58.92;;;22.10;60.90;;;;;;4970444;28;94109;-39
2023/07/16 08:25:04;;;;;;;100.93;58.42;;;22.10;58.90;;;;;;4970357;28;96329;-40
2023/07/16 08:27:30;;;;;;;102.13;58.40;;;22.20;59.20;;;;;;4968499;28;95130;-40
2023/07/16 08:29:56;;;;;;;103.13;58.50;;;22.20;59.20;;;;;;4971322;28;96123;-40
2023/07/16 08:32:22;;;;;;;100.13;57.95;;;22.20;59.00;;;;;;4969095;28;99855;-39
2023/07/16 08:34:48;;;;;;;103.72;58.38;;;22.20;59.40;;;;;;4976916;28;94911;-41
2023/07/16 08:37:14;;;;;;;99.32;58.08;;;22.20;59.30;;;;;;4971028;28;97718;-40
2023/07/16 08:39:39;;;;;;;100.63;58.22;;;22.20;59.10;;;;;;4962769;28;95607;-40
2023/07/16 08:42:06;;;;;;;104.30;58.92;;;22.30;59.80;;;;;;4967279;28;96441;-40
2023/07/16 08:44:32;;;;;;;103.45;58.28;;;22.30;59.80;;;;;;4968114;28;96242;-40
2023/07/16 08:46:58;;;;;;;100.93;58.08;;;22.40;59.70;;;;;;4952641;28;94469;-40
2023/07/16 08:49:28;;;;;;;101.85;58.55;;;22.50;59.10;;;;;;4970240;28;97770;-41
2023/07/16 08:51:55;;;;;;;103.97;58.53;;;22.50;58.50;;;;;;4968059;28;97842;-40
2023/07/16 08:54:22;;;;;;;106.35;58.58;;;22.50;58.90;;;;;;4965253;28;97030;-40
2023/07/16 08:56:48;;;;;;;105.25;58.83;;;22.50;58.80;;;;;;4963452;28;95164;-40
2023/07/16 08:59:17;;;;;;;104.45;58.25;;;22.40;59.40;;;;;;4965447;28;94877;-41
2023/07/16 09:01:43;;;;;;;104.22;58.78;;;22.30;59.10;;;;;;4960830;28;95274;-40
2023/07/16 09:04:09;;;;;;;102.35;58.65;;;22.20;58.60;;;;;;4961490;28;94788;-40
2023/07/16 09:06:34;;;;;;;101.25;58.55;;;22.30;59.30;;;;;;4961235;28;99173;-40
2023/07/16 09:09:00;;;;;;;101.25;57.95;;;22.30;59.10;;;;;;4973379;28;95536;-40
2023/07/16 09:11:27;;;;;;;101.35;57.78;;;22.40;58.50;;;;;;4972924;28;94605;-40
2023/07/16 09:13:52;;;;;;;102.85;58.13;;;22.40;58.40;;;;;;4971486;28;99199;-40
2023/07/16 09:16:20;;;;;;;104.97;58.53;;;22.40;58.40;;;;;;4973809;28;98599;-40
2023/07/16 09:18:46;;;;;;;102.00;58.40;;;22.30;58.30;;;;;;4970528;28;95870;-40
2023/07/16 09:21:12;;;;;;;101.07;58.40;;;22.30;59.00;;;;;;4966290;28;95318;-40
2023/07/16 09:23:38;;;;;;;102.55;58.60;;;22.30;59.40;;;;;;4964446;28;95118;-40
2023/07/16 09:26:03;;;;;;;105.35;58.03;;;22.20;59.20;;;;;;4966245;28;96041;-40
2023/07/16 09:28:32;;;;;;;103.22;58.10;;;22.20;59.40;;;;;;4968741;28;95223;-40
2023/07/16 09:31:05;;;;;;;105.97;57.92;;;22.20;59.00;;;;;;4973802;28;95927;-40
2023/07/16 09:33:32;;;;;;;104.90;57.63;;;22.20;59.20;;;;;;4967248;28;97157;-42
2023/07/16 09:35:57;;;;;;;102.97;57.50;;;22.10;59.60;;;;;;4971940;28;94294;-42
2023/07/16 09:38:24;;;;;;;100.82;57.00;;;22.00;59.50;;;;;;4966242;28;98258;-40
2023/07/16 09:40:52;;;;;;;97.68;56.65;;;21.90;62.50;;;;;;4973872;28;95509;-43
2023/07/16 09:43:18;;;;;;;98.30;56.65;;;21.60;64.90;;;;;;4971995;28;96312;-40
2023/07/16 09:45:44;;;;;;;98.25;55.95;;;21.40;66.20;;;;;;4967683;28;96809;-42
2023/07/16 09:48:09;;;;;;;94.78;55.58;;;21.30;67.30;;;;;;4967329;28;95254;-41
2023/07/16 09:50:36;;;;;;;97.53;56.15;;;21.20;67.60;;;;;;4965306;28;97490;-40
2023/07/16 09:53:04;;;;;;;101.60;56.72;;;21.40;67.10;;;;;;4961820;28;96744;-40
2023/07/16 09:55:35;;;;;;;96.57;56.75;;;21.60;68.30;;;;;;4970851;28;95208;-40
2023/07/16 09:58:03;;;;;;;96.63;57.10;;;21.80;67.60;;;;;;4968572;28;95501;-40
2023/07/16 10:00:30;;;;;;;98.32;56.65;;;21.90;67.20;;;;;;4968523;28;95829;-41
2023/07/16 10:02:55;;;;;;;98.75;57.03;;;22.10;65.80;;;;;;4965964;28;95590;-41
2023/07/16 10:05:26;;;;;;;100.68;57.30;;;22.00;65.40;;;;;;4949798;28;95148;-41
2023/07/16 10:07:58;;;;;;;101.15;56.75;;;22.10;66.50;;;;;;4963927;28;95995;-41
2023/07/16 10:10:37;;;;;;;96.55;56.60;;;22.20;64.40;;;;;;4963442;28;97692;-42
2023/07/16 10:13:03;;;;;;;100.55;57.35;;;22.00;64.50;;;;;;4966451;28;95236;-41
2023/07/16 10:15:29;;;;;;;99.50;57.17;;;22.20;66.00;;;;;;4969100;28;97799;-41
2023/07/16 10:17:56;;;;;;;100.15;56.90;;;22.30;64.10;;;;;;4969751;28;96533;-41
2023/07/16 10:20:32;;;;;;;100.07;57.55;;;22.40;64.10;;;;;;4970964;28;94864;-41
2023/07/16 10:22:58;;;;;;;98.45;57.10;;;22.50;61.90;;;;;;4966873;28;95710;-40
2023/07/16 10:25:26;;;;;;;101.53;57.53;;;22.50;61.00;;;;;;4976426;28;94578;-41
2023/07/16 10:27:53;;;;;;;102.55;57.85;;;22.60;61.00;;;;;;4970954;28;95024;-42
2023/07/16 10:30:19;;;;;;;101.63;58.08;;;22.60;59.70;;;;;;4970859;28;94845;-41
2023/07/16 10:32:46;;;;;;;99.55;57.72;;;22.70;60.90;;;;;;4971579;28;95667;-42
2023/07/16 10:35:12;;;;;;;103.78;57.38;;;22.70;60.20;;;;;;4973527;28;95283;-40
2023/07/16 10:37:39;;;;;;;102.13;57.50;;;22.70;61.10;;;;;;4969166;28;100539;-41
2023/07/16 10:40:09;;;;;;;101.20;57.60;;;22.70;60.00;;;;;;4966723;28;96712;-41
2023/07/16 10:42:35;;;;;;;100.80;57.67;;;22.80;60.70;;;;;;4968932;28;94841;-40
2023/07/16 10:45:03;;;;;;;102.90;57.92;;;22.80;60.80;;;;;;4962376;28;97802;-40
2023/07/16 10:47:36;;;;;;;98.72;57.45;;;22.90;57.80;;;;;;4963019;28;95511;-41
2023/07/16 10:50:08;;;;;;;99.65;57.33;;;23.10;58.30;;;;;;4962711;28;95067;-43
2023/07/16 10:52:34;;;;;;;100.50;57.78;;;23.10;57.30;;;;;;4960849;28;94704;-41
2023/07/16 10:55:00;;;;;;;101.55;57.50;;;23.20;58.10;;;;;;4966751;28;94826;-40
2023/07/16 10:57:27;;;;;;;100.70;57.30;;;23.20;56.60;;;;;;4954091;28;96771;-39
2023/07/16 10:59:57;;;;;;;101.57;57.35;;;23.20;55.20;;;;;;4953326;28;98935;-39
2023/07/16 11:02:24;;;;;;;97.17;56.67;;;23.20;54.80;;;;;;4956447;28;96488;-39
2023/07/16 11:04:53;;;;;;;98.60;57.20;;;23.20;55.60;;;;;;4961119;28;95442;-39
2023/07/16 11:07:19;;;;;;;101.30;57.35;;;23.20;55.90;;;;;;4967120;28;95251;-40
2023/07/16 11:09:48;;;;;;;101.90;56.70;;;23.20;56.80;;;;;;4969287;28;94972;-39
2023/07/16 11:12:16;;;;;;;97.57;57.08;;;23.30;56.10;;;;;;4963189;28;95839;-39
2023/07/16 11:14:45;;;;;;;104.63;57.47;;;23.20;54.90;;;;;;4965310;28;96592;-40
2023/07/16 11:17:11;;;;;;;100.47;56.92;;;23.20;57.00;;;;;;4972699;28;95560;-40
2023/07/16 11:19:37;;;;;;;103.03;57.28;;;23.10;56.30;;;;;;4964153;28;96888;-40
2023/07/16 11:22:06;;;;;;;102.00;57.55;;;23.10;57.10;;;;;;4967884;28;96755;-41
2023/07/16 11:24:49;;;;;;;103.07;57.13;;;23.20;58.20;;;;;;4970300;28;94800;-40
2023/07/16 11:27:30;;;;;;;99.10;57.13;;;23.30;57.40;;;;;;4948264;28;95254;-40
2023/07/16 11:29:59;;;;;;;104.05;57.38;;;23.30;57.30;;;;;;4962714;28;94817;-40
2023/07/16 11:32:36;;;;;;;108.40;57.45;;;23.20;58.80;;;;;;4960294;28;95458;-39
2023/07/16 11:35:04;;;;;;;99.47;56.92;;;23.10;57.80;;;;;;4958449;28;95830;-42
2023/07/16 11:37:32;;;;;;;100.30;56.63;;;23.20;58.00;;;;;;4964204;28;95652;-40
2023/07/16 11:40:06;;;;;;;102.10;56.80;;;23.20;57.30;;;;;;4961837;28;94451;-40
2023/07/16 11:42:39;;;;;;;103.65;57.45;;;23.20;57.70;;;;;;4966022;28;97093;-40
2023/07/16 11:45:14;;;;;;;96.95;56.42;;;23.10;57.50;;;;;;4962726;28;94673;-40
2023/07/16 11:47:40;;;;;;;98.47;56.28;;;23.00;57.30;;;;;;4967263;28;95715;-40
2023/07/16 11:50:07;;;;;;;99.10;56.42;;;23.10;56.30;;;;;;4961733;28;95136;-40
2023/07/16 11:52:32;;;;;;;100.78;57.15;;;23.20;56.30;;;;;;4963958;28;95581;-40
2023/07/16 11:55:03;;;;;;;97.85;55.92;;;23.30;56.20;;;;;;4958446;28;95911;-40
2023/07/16 11:57:29;;;;;;;96.20;56.05;;;23.30;53.00;;;;;;4966169;28;94698;-40
2023/07/16 11:59:55;;;;;;;96.15;55.63;;;23.30;54.00;;;;;;4955664;28;99127;-40
2023/07/16 12:02:21;;;;;;;97.70;55.92;;;23.30;54.10;;;;;;4950281;28;95644;-40
2023/07/16 12:04:47;;;;;;;97.15;56.17;;;23.40;55.20;;;;;;4968010;28;94854;-40
2023/07/16 12:07:13;;;;;;;97.75;55.80;;;23.40;55.80;;;;;;4962395;28;96069;-40
2023/07/16 12:09:38;;;;;;;101.32;55.95;;;23.40;56.20;;;;;;4968215;28;95612;-43
2023/07/16 12:12:05;;;;;;;96.38;56.10;;;23.30;57.10;;;;;;4965600;28;96074;-40
2023/07/16 12:14:31;;;;;;;94.93;55.45;;;23.30;57.70;;;;;;4957507;28;95939;-40
2023/07/16 12:16:57;;;;;;;99.88;56.30;;;23.30;56.70;;;;;;4963347;28;97546;-40
2023/07/16 12:19:22;;;;;;;96.43;55.67;;;23.50;58.20;;;;;;4955768;28;95087;-40
2023/07/16 12:21:48;;;;;;;102.40;55.72;;;23.50;57.20;;;;;;4956448;28;97329;-41